sensor_id;sensor_type;location;lat;lon;timestamp;P1;durP1;ratioP1;P2;durP2;ratioP2
18532;SDS011;9396;51.510;11.934;2023-04-05T00:01:55;4.20;;;3.30;;
18532;SDS011;9396;51.510;11.934;2023-04-05T00:04:22;5.87;;;3.43;;
18532;SDS011;9396;51.510;11.934;2023-04-05T00:06:49;6.07;;;3.43;;
18532;SDS011;9396;51.510;11.934;2023-04-05T00:09:17;5.43;;;3.53;;
18532;SDS011;9396;51.510;11.934;2023-04-05T00:11:44;5.00;;;3.30;;
18532;SDS011;9396;51.510;11.934;2023-04-05T00:14:13;5.67;;;3.70;;
18532;SDS011;9396;51.510;11.934;2023-04-05T00:16:39;5.67;;;3.87;;
18532;SDS011;9396;51.510;11.934;2023-04-05T00:19:06;5.20;;;3.83;;
18532;SDS011;9396;51.510;11.934;2023-04-05T00:21:35;5.90;;;3.70;;
18532;SDS011;9396;51.510;11.934;2023-04-05T00:24:03;6.80;;;4.23;;
18532;SDS011;9396;51.510;11.934;2023-04-05T00:26:30;5.03;;;3.70;;
18532;SDS011;9396;51.510;11.934;2023-04-05T00:28:57;7.80;;;4.30;;
18532;SDS011;9396;51.510;11.934;2023-04-05T00:31:25;7.13;;;3.73;;
18532;SDS011;9396;51.510;11.934;2023-04-05T00:33:51;6.03;;;4.03;;
18532;SDS011;9396;51.510;11.934;2023-04-05T00:36:18;8.30;;;4.23;;
18532;SDS011;9396;51.510;11.934;2023-04-05T00:38:46;11.63;;;4.40;;
18532;SDS011;9396;51.510;11.934;2023-04-05T00:41:14;6.03;;;3.93;;
18532;SDS011;9396;51.510;11.934;2023-04-05T00:43:41;5.57;;;3.60;;
18532;SDS011;9396;51.510;11.934;2023-04-05T00:46:08;6.53;;;3.67;;
18532;SDS011;9396;51.510;11.934;2023-04-05T00:48:36;5.60;;;3.90;;
18532;SDS011;9396;51.510;11.934;2023-04-05T00:51:03;5.83;;;3.87;;
18532;SDS011;9396;51.510;11.934;2023-04-05T00:53:33;5.07;;;3.20;;
18532;SDS011;9396;51.510;11.934;2023-04-05T00:56:00;7.40;;;4.27;;
18532;SDS011;9396;51.510;11.934;2023-04-05T00:58:28;7.07;;;4.07;;
18532;SDS011;9396;51.510;11.934;2023-04-05T01:00:57;8.23;;;4.00;;
18532;SDS011;9396;51.510;11.934;2023-04-05T01:03:30;7.33;;;4.00;;
18532;SDS011;9396;51.510;11.934;2023-04-05T01:06:11;6.00;;;4.17;;
18532;SDS011;9396;51.510;11.934;2023-04-05T01:08:48;6.97;;;4.47;;
18532;SDS011;9396;51.510;11.934;2023-04-05T01:11:20;6.23;;;4.03;;
18532;SDS011;9396;51.510;11.934;2023-04-05T01:13:48;5.93;;;3.60;;
18532;SDS011;9396;51.510;11.934;2023-04-05T01:16:15;6.93;;;4.03;;
18532;SDS011;9396;51.510;11.934;2023-04-05T01:18:41;5.10;;;3.70;;
18532;SDS011;9396;51.510;11.934;2023-04-05T01:21:20;6.43;;;4.00;;
18532;SDS011;9396;51.510;11.934;2023-04-05T01:24:15;8.37;;;3.90;;
18532;SDS011;9396;51.510;11.934;2023-04-05T01:26:55;6.27;;;4.27;;
18532;SDS011;9396;51.510;11.934;2023-04-05T01:29:31;5.73;;;3.87;;
18532;SDS011;9396;51.510;11.934;2023-04-05T01:32:09;6.87;;;3.93;;
18532;SDS011;9396;51.510;11.934;2023-04-05T01:34:42;6.57;;;4.00;;
18532;SDS011;9396;51.510;11.934;2023-04-05T01:37:17;6.43;;;4.17;;
18532;SDS011;9396;51.510;11.934;2023-04-05T01:39:45;5.43;;;3.93;;
18532;SDS011;9396;51.510;11.934;2023-04-05T01:42:13;6.83;;;4.33;;
18532;SDS011;9396;51.510;11.934;2023-04-05T01:44:41;6.60;;;4.00;;
18532;SDS011;9396;51.510;11.934;2023-04-05T01:47:07;5.97;;;3.97;;
18532;SDS011;9396;51.510;11.934;2023-04-05T01:49:34;6.93;;;3.67;;
18532;SDS011;9396;51.510;11.934;2023-04-05T01:52:00;7.80;;;4.10;;
18532;SDS011;9396;51.510;11.934;2023-04-05T01:54:27;5.83;;;3.87;;
18532;SDS011;9396;51.510;11.934;2023-04-05T01:56:54;6.13;;;3.77;;
18532;SDS011;9396;51.510;11.934;2023-04-05T01:59:20;4.70;;;3.73;;
18532;SDS011;9396;51.510;11.934;2023-04-05T02:01:49;6.10;;;3.83;;
18532;SDS011;9396;51.510;11.934;2023-04-05T02:04:16;8.07;;;4.20;;
18532;SDS011;9396;51.510;11.934;2023-04-05T02:06:42;5.73;;;3.63;;
18532;SDS011;9396;51.510;11.934;2023-04-05T02:09:09;5.77;;;3.77;;
18532;SDS011;9396;51.510;11.934;2023-04-05T02:11:36;6.10;;;3.67;;
18532;SDS011;9396;51.510;11.934;2023-04-05T02:14:03;5.27;;;3.43;;
18532;SDS011;9396;51.510;11.934;2023-04-05T02:16:29;7.93;;;3.83;;
18532;SDS011;9396;51.510;11.934;2023-04-05T02:18:58;6.33;;;3.93;;
18532;SDS011;9396;51.510;11.934;2023-04-05T02:21:25;5.63;;;3.70;;
18532;SDS011;9396;51.510;11.934;2023-04-05T02:23:52;6.17;;;3.70;;
18532;SDS011;9396;51.510;11.934;2023-04-05T02:26:19;5.50;;;3.73;;
18532;SDS011;9396;51.510;11.934;2023-04-05T02:28:46;4.97;;;3.63;;
18532;SDS011;9396;51.510;11.934;2023-04-05T02:31:13;5.90;;;3.70;;
18532;SDS011;9396;51.510;11.934;2023-04-05T02:33:40;5.53;;;3.63;;
18532;SDS011;9396;51.510;11.934;2023-04-05T02:36:10;5.10;;;3.47;;
18532;SDS011;9396;51.510;11.934;2023-04-05T02:38:37;4.57;;;3.80;;
18532;SDS011;9396;51.510;11.934;2023-04-05T02:41:06;5.43;;;3.77;;
18532;SDS011;9396;51.510;11.934;2023-04-05T02:43:33;4.83;;;3.63;;
18532;SDS011;9396;51.510;11.934;2023-04-05T02:46:00;4.93;;;3.30;;
18532;SDS011;9396;51.510;11.934;2023-04-05T02:48:27;5.37;;;3.23;;
18532;SDS011;9396;51.510;11.934;2023-04-05T02:50:53;7.97;;;3.53;;
18532;SDS011;9396;51.510;11.934;2023-04-05T02:53:21;5.33;;;3.47;;
18532;SDS011;9396;51.510;11.934;2023-04-05T02:55:50;5.83;;;3.50;;
18532;SDS011;9396;51.510;11.934;2023-04-05T02:58:18;5.20;;;3.60;;
18532;SDS011;9396;51.510;11.934;2023-04-05T03:00:45;5.60;;;3.13;;
18532;SDS011;9396;51.510;11.934;2023-04-05T03:03:15;5.83;;;3.40;;
18532;SDS011;9396;51.510;11.934;2023-04-05T03:05:42;5.37;;;3.57;;
18532;SDS011;9396;51.510;11.934;2023-04-05T03:08:08;6.67;;;3.47;;
18532;SDS011;9396;51.510;11.934;2023-04-05T03:10:45;6.50;;;2.87;;
18532;SDS011;9396;51.510;11.934;2023-04-05T03:13:12;4.13;;;3.20;;
18532;SDS011;9396;51.510;11.934;2023-04-05T03:15:39;5.13;;;3.30;;
18532;SDS011;9396;51.510;11.934;2023-04-05T03:18:06;5.07;;;3.90;;
18532;SDS011;9396;51.510;11.934;2023-04-05T03:20:33;5.23;;;3.17;;
18532;SDS011;9396;51.510;11.934;2023-04-05T03:23:04;8.13;;;3.60;;
18532;SDS011;9396;51.510;11.934;2023-04-05T03:25:33;7.57;;;3.63;;
18532;SDS011;9396;51.510;11.934;2023-04-05T03:28:02;5.03;;;3.20;;
18532;SDS011;9396;51.510;11.934;2023-04-05T03:30:29;6.67;;;3.70;;
18532;SDS011;9396;51.510;11.934;2023-04-05T03:32:56;6.57;;;3.70;;
18532;SDS011;9396;51.510;11.934;2023-04-05T03:35:25;4.87;;;3.30;;
18532;SDS011;9396;51.510;11.934;2023-04-05T03:37:52;5.87;;;3.60;;
18532;SDS011;9396;51.510;11.934;2023-04-05T03:40:19;5.17;;;3.67;;
18532;SDS011;9396;51.510;11.934;2023-04-05T03:42:46;5.50;;;3.77;;
18532;SDS011;9396;51.510;11.934;2023-04-05T03:45:14;8.20;;;3.70;;
18532;SDS011;9396;51.510;11.934;2023-04-05T03:47:41;6.97;;;3.40;;
18532;SDS011;9396;51.510;11.934;2023-04-05T03:50:07;4.50;;;3.47;;
18532;SDS011;9396;51.510;11.934;2023-04-05T03:52:35;8.67;;;3.17;;
18532;SDS011;9396;51.510;11.934;2023-04-05T03:55:01;4.60;;;3.50;;
18532;SDS011;9396;51.510;11.934;2023-04-05T03:57:28;5.57;;;3.70;;
18532;SDS011;9396;51.510;11.934;2023-04-05T03:59:55;5.00;;;3.77;;
18532;SDS011;9396;51.510;11.934;2023-04-05T04:02:23;5.10;;;3.50;;
18532;SDS011;9396;51.510;11.934;2023-04-05T04:04:50;4.43;;;3.20;;
18532;SDS011;9396;51.510;11.934;2023-04-05T04:07:17;6.53;;;3.53;;
18532;SDS011;9396;51.510;11.934;2023-04-05T04:09:44;5.47;;;3.37;;
18532;SDS011;9396;51.510;11.934;2023-04-05T04:12:10;4.77;;;3.60;;
18532;SDS011;9396;51.510;11.934;2023-04-05T04:14:37;5.00;;;3.37;;
18532;SDS011;9396;51.510;11.934;2023-04-05T04:17:03;5.77;;;3.67;;
18532;SDS011;9396;51.510;11.934;2023-04-05T04:19:31;6.20;;;3.40;;
18532;SDS011;9396;51.510;11.934;2023-04-05T04:21:58;5.43;;;3.33;;
18532;SDS011;9396;51.510;11.934;2023-04-05T04:24:25;6.00;;;3.57;;
18532;SDS011;9396;51.510;11.934;2023-04-05T04:26:51;7.57;;;3.73;;
18532;SDS011;9396;51.510;11.934;2023-04-05T04:29:18;6.47;;;3.90;;
18532;SDS011;9396;51.510;11.934;2023-04-05T04:31:55;5.47;;;3.73;;
18532;SDS011;9396;51.510;11.934;2023-04-05T04:34:21;7.00;;;3.90;;
18532;SDS011;9396;51.510;11.934;2023-04-05T04:36:50;9.17;;;3.80;;
18532;SDS011;9396;51.510;11.934;2023-04-05T04:39:24;5.73;;;3.47;;
18532;SDS011;9396;51.510;11.934;2023-04-05T04:41:51;5.57;;;3.40;;
18532;SDS011;9396;51.510;11.934;2023-04-05T04:44:18;8.03;;;3.70;;
18532;SDS011;9396;51.510;11.934;2023-04-05T04:46:52;7.53;;;3.40;;
18532;SDS011;9396;51.510;11.934;2023-04-05T04:49:19;5.63;;;3.77;;
18532;SDS011;9396;51.510;11.934;2023-04-05T04:51:45;6.97;;;4.03;;
18532;SDS011;9396;51.510;11.934;2023-04-05T04:54:13;7.80;;;3.10;;
18532;SDS011;9396;51.510;11.934;2023-04-05T04:56:44;4.70;;;3.40;;
18532;SDS011;9396;51.510;11.934;2023-04-05T04:59:11;4.07;;;3.10;;
18532;SDS011;9396;51.510;11.934;2023-04-05T05:01:38;6.20;;;3.80;;
18532;SDS011;9396;51.510;11.934;2023-04-05T05:04:05;5.00;;;3.80;;
18532;SDS011;9396;51.510;11.934;2023-04-05T05:06:31;5.93;;;3.30;;
18532;SDS011;9396;51.510;11.934;2023-04-05T05:08:58;5.97;;;3.20;;
18532;SDS011;9396;51.510;11.934;2023-04-05T05:11:26;3.87;;;2.97;;
18532;SDS011;9396;51.510;11.934;2023-04-05T05:13:53;5.50;;;3.57;;
18532;SDS011;9396;51.510;11.934;2023-04-05T05:16:20;6.07;;;3.10;;
18532;SDS011;9396;51.510;11.934;2023-04-05T05:18:48;6.30;;;3.50;;
18532;SDS011;9396;51.510;11.934;2023-04-05T05:21:15;6.47;;;3.60;;
18532;SDS011;9396;51.510;11.934;2023-04-05T05:23:42;4.47;;;3.23;;
18532;SDS011;9396;51.510;11.934;2023-04-05T05:26:09;4.60;;;3.03;;
18532;SDS011;9396;51.510;11.934;2023-04-05T05:28:38;5.73;;;3.60;;
18532;SDS011;9396;51.510;11.934;2023-04-05T05:31:05;8.17;;;3.83;;
18532;SDS011;9396;51.510;11.934;2023-04-05T05:33:31;7.80;;;3.60;;
18532;SDS011;9396;51.510;11.934;2023-04-05T05:35:58;4.43;;;3.37;;
18532;SDS011;9396;51.510;11.934;2023-04-05T05:38:25;5.47;;;3.53;;
18532;SDS011;9396;51.510;11.934;2023-04-05T05:40:54;7.37;;;3.73;;
18532;SDS011;9396;51.510;11.934;2023-04-05T05:43:21;6.43;;;3.07;;
18532;SDS011;9396;51.510;11.934;2023-04-05T05:45:49;8.50;;;4.03;;
18532;SDS011;9396;51.510;11.934;2023-04-05T05:48:15;9.87;;;4.20;;
18532;SDS011;9396;51.510;11.934;2023-04-05T05:50:43;6.17;;;3.73;;
18532;SDS011;9396;51.510;11.934;2023-04-05T05:53:11;7.63;;;3.80;;
18532;SDS011;9396;51.510;11.934;2023-04-05T05:55:38;6.10;;;3.67;;
18532;SDS011;9396;51.510;11.934;2023-04-05T05:58:05;8.70;;;4.00;;
18532;SDS011;9396;51.510;11.934;2023-04-05T06:00:32;5.87;;;4.00;;
18532;SDS011;9396;51.510;11.934;2023-04-05T06:03:00;6.63;;;3.90;;
18532;SDS011;9396;51.510;11.934;2023-04-05T06:05:28;4.70;;;3.40;;
18532;SDS011;9396;51.510;11.934;2023-04-05T06:07:55;5.13;;;3.70;;
18532;SDS011;9396;51.510;11.934;2023-04-05T06:10:21;8.10;;;3.67;;
18532;SDS011;9396;51.510;11.934;2023-04-05T06:12:49;10.50;;;4.27;;
18532;SDS011;9396;51.510;11.934;2023-04-05T06:15:16;6.50;;;4.43;;
18532;SDS011;9396;51.510;11.934;2023-04-05T06:17:43;5.53;;;4.00;;
18532;SDS011;9396;51.510;11.934;2023-04-05T06:20:11;9.60;;;3.90;;
18532;SDS011;9396;51.510;11.934;2023-04-05T06:22:38;4.70;;;3.53;;
18532;SDS011;9396;51.510;11.934;2023-04-05T06:25:06;6.27;;;3.60;;
18532;SDS011;9396;51.510;11.934;2023-04-05T06:27:33;5.73;;;3.60;;
18532;SDS011;9396;51.510;11.934;2023-04-05T06:30:00;10.23;;;3.53;;
18532;SDS011;9396;51.510;11.934;2023-04-05T06:32:26;4.07;;;3.10;;
18532;SDS011;9396;51.510;11.934;2023-04-05T06:34:53;10.80;;;3.27;;
18532;SDS011;9396;51.510;11.934;2023-04-05T06:37:21;4.30;;;3.07;;
18532;SDS011;9396;51.510;11.934;2023-04-05T06:39:48;5.93;;;3.67;;
18532;SDS011;9396;51.510;11.934;2023-04-05T06:42:14;6.73;;;3.73;;
18532;SDS011;9396;51.510;11.934;2023-04-05T06:44:41;5.20;;;3.63;;
18532;SDS011;9396;51.510;11.934;2023-04-05T06:47:07;6.67;;;3.70;;
18532;SDS011;9396;51.510;11.934;2023-04-05T06:49:34;7.20;;;3.90;;
18532;SDS011;9396;51.510;11.934;2023-04-05T06:52:01;6.60;;;3.73;;
18532;SDS011;9396;51.510;11.934;2023-04-05T06:54:31;7.10;;;3.77;;
18532;SDS011;9396;51.510;11.934;2023-04-05T06:56:58;7.13;;;4.10;;
18532;SDS011;9396;51.510;11.934;2023-04-05T06:59:26;11.87;;;3.57;;
18532;SDS011;9396;51.510;11.934;2023-04-05T07:01:53;6.07;;;3.60;;
18532;SDS011;9396;51.510;11.934;2023-04-05T07:04:19;6.57;;;3.43;;
18532;SDS011;9396;51.510;11.934;2023-04-05T07:06:46;10.03;;;4.17;;
18532;SDS011;9396;51.510;11.934;2023-04-05T07:09:13;6.47;;;4.20;;
18532;SDS011;9396;51.510;11.934;2023-04-05T07:11:41;8.00;;;3.90;;
18532;SDS011;9396;51.510;11.934;2023-04-05T07:14:08;8.27;;;3.97;;
18532;SDS011;9396;51.510;11.934;2023-04-05T07:16:34;7.23;;;3.97;;
18532;SDS011;9396;51.510;11.934;2023-04-05T07:19:01;6.27;;;3.87;;
18532;SDS011;9396;51.510;11.934;2023-04-05T07:21:30;6.90;;;3.40;;
18532;SDS011;9396;51.510;11.934;2023-04-05T07:23:56;5.33;;;3.50;;
18532;SDS011;9396;51.510;11.934;2023-04-05T07:26:24;5.03;;;3.00;;
18532;SDS011;9396;51.510;11.934;2023-04-05T07:28:53;4.20;;;3.37;;
18532;SDS011;9396;51.510;11.934;2023-04-05T07:31:20;5.27;;;3.60;;
18532;SDS011;9396;51.510;11.934;2023-04-05T07:33:46;6.73;;;3.03;;
18532;SDS011;9396;51.510;11.934;2023-04-05T07:36:13;5.50;;;2.80;;
18532;SDS011;9396;51.510;11.934;2023-04-05T07:38:39;4.90;;;2.70;;
18532;SDS011;9396;51.510;11.934;2023-04-05T07:41:06;3.67;;;2.60;;
18532;SDS011;9396;51.510;11.934;2023-04-05T07:43:33;4.33;;;2.70;;
18532;SDS011;9396;51.510;11.934;2023-04-05T07:46:01;3.53;;;2.30;;
18532;SDS011;9396;51.510;11.934;2023-04-05T07:48:28;6.50;;;2.63;;
18532;SDS011;9396;51.510;11.934;2023-04-05T07:50:56;4.90;;;2.60;;
18532;SDS011;9396;51.510;11.934;2023-04-05T07:53:27;13.33;;;3.20;;
18532;SDS011;9396;51.510;11.934;2023-04-05T07:55:54;5.03;;;2.63;;
18532;SDS011;9396;51.510;11.934;2023-04-05T07:58:21;4.50;;;3.40;;
18532;SDS011;9396;51.510;11.934;2023-04-05T08:00:48;6.00;;;3.20;;
18532;SDS011;9396;51.510;11.934;2023-04-05T08:03:18;5.90;;;3.27;;
18532;SDS011;9396;51.510;11.934;2023-04-05T08:05:45;4.80;;;3.17;;
18532;SDS011;9396;51.510;11.934;2023-04-05T08:08:11;7.60;;;2.87;;
18532;SDS011;9396;51.510;11.934;2023-04-05T08:10:38;8.57;;;3.83;;
18532;SDS011;9396;51.510;11.934;2023-04-05T08:13:04;5.57;;;2.87;;
18532;SDS011;9396;51.510;11.934;2023-04-05T08:15:32;4.73;;;2.47;;
18532;SDS011;9396;51.510;11.934;2023-04-05T08:17:59;3.40;;;2.17;;
18532;SDS011;9396;51.510;11.934;2023-04-05T08:20:27;3.27;;;2.10;;
18532;SDS011;9396;51.510;11.934;2023-04-05T08:22:53;4.07;;;2.40;;
18532;SDS011;9396;51.510;11.934;2023-04-05T08:25:20;7.20;;;2.57;;
18532;SDS011;9396;51.510;11.934;2023-04-05T08:27:46;3.53;;;2.30;;
18532;SDS011;9396;51.510;11.934;2023-04-05T08:30:13;5.67;;;2.60;;
18532;SDS011;9396;51.510;11.934;2023-04-05T08:32:40;6.27;;;2.50;;
18532;SDS011;9396;51.510;11.934;2023-04-05T08:35:07;4.40;;;1.90;;
18532;SDS011;9396;51.510;11.934;2023-04-05T08:37:35;4.17;;;1.97;;
18532;SDS011;9396;51.510;11.934;2023-04-05T08:40:02;4.03;;;2.20;;
18532;SDS011;9396;51.510;11.934;2023-04-05T08:42:31;3.03;;;2.30;;
18532;SDS011;9396;51.510;11.934;2023-04-05T08:45:02;4.17;;;2.10;;
18532;SDS011;9396;51.510;11.934;2023-04-05T08:47:29;3.60;;;2.00;;
18532;SDS011;9396;51.510;11.934;2023-04-05T08:49:57;2.77;;;1.50;;
18532;SDS011;9396;51.510;11.934;2023-04-05T08:52:24;2.50;;;1.40;;
18532;SDS011;9396;51.510;11.934;2023-04-05T08:54:53;3.03;;;1.80;;
18532;SDS011;9396;51.510;11.934;2023-04-05T08:57:21;2.00;;;1.80;;
18532;SDS011;9396;51.510;11.934;2023-04-05T08:59:52;3.13;;;1.90;;
18532;SDS011;9396;51.510;11.934;2023-04-05T09:02:21;3.07;;;1.93;;
18532;SDS011;9396;51.510;11.934;2023-04-05T09:04:50;5.10;;;2.17;;
18532;SDS011;9396;51.510;11.934;2023-04-05T09:07:17;4.33;;;1.90;;
18532;SDS011;9396;51.510;11.934;2023-04-05T09:09:46;5.40;;;1.77;;
18532;SDS011;9396;51.510;11.934;2023-04-05T09:12:19;3.57;;;2.10;;
18532;SDS011;9396;51.510;11.934;2023-04-05T09:14:47;4.90;;;2.60;;
18532;SDS011;9396;51.510;11.934;2023-04-05T09:17:16;3.83;;;2.23;;
18532;SDS011;9396;51.510;11.934;2023-04-05T09:19:43;3.70;;;2.23;;
18532;SDS011;9396;51.510;11.934;2023-04-05T09:22:10;4.17;;;1.93;;
18532;SDS011;9396;51.510;11.934;2023-04-05T09:24:39;3.93;;;2.30;;
18532;SDS011;9396;51.510;11.934;2023-04-05T09:27:07;3.27;;;1.60;;
18532;SDS011;9396;51.510;11.934;2023-04-05T09:29:37;2.77;;;1.97;;
18532;SDS011;9396;51.510;11.934;2023-04-05T09:32:05;3.00;;;1.70;;
18532;SDS011;9396;51.510;11.934;2023-04-05T09:34:33;4.33;;;1.83;;
18532;SDS011;9396;51.510;11.934;2023-04-05T09:37:01;7.00;;;1.87;;
18532;SDS011;9396;51.510;11.934;2023-04-05T09:39:36;4.00;;;1.90;;
18532;SDS011;9396;51.510;11.934;2023-04-05T09:42:04;6.00;;;2.10;;
18532;SDS011;9396;51.510;11.934;2023-04-05T09:44:50;5.27;;;2.00;;
18532;SDS011;9396;51.510;11.934;2023-04-05T09:47:18;1.77;;;1.47;;
18532;SDS011;9396;51.510;11.934;2023-04-05T09:49:46;4.73;;;1.77;;
18532;SDS011;9396;51.510;11.934;2023-04-05T09:52:22;4.30;;;1.70;;
18532;SDS011;9396;51.510;11.934;2023-04-05T09:54:50;2.50;;;1.60;;
18532;SDS011;9396;51.510;11.934;2023-04-05T09:57:19;2.83;;;1.70;;
18532;SDS011;9396;51.510;11.934;2023-04-05T09:59:46;10.33;;;2.10;;
18532;SDS011;9396;51.510;11.934;2023-04-05T10:02:14;3.73;;;1.60;;
18532;SDS011;9396;51.510;11.934;2023-04-05T10:04:42;3.40;;;1.97;;
18532;SDS011;9396;51.510;11.934;2023-04-05T10:07:10;3.97;;;1.50;;
18532;SDS011;9396;51.510;11.934;2023-04-05T10:09:38;2.97;;;1.60;;
18532;SDS011;9396;51.510;11.934;2023-04-05T10:12:05;2.83;;;1.70;;
18532;SDS011;9396;51.510;11.934;2023-04-05T10:14:33;3.83;;;1.63;;
18532;SDS011;9396;51.510;11.934;2023-04-05T10:17:02;4.37;;;1.70;;
18532;SDS011;9396;51.510;11.934;2023-04-05T10:19:39;2.83;;;1.63;;
18532;SDS011;9396;51.510;11.934;2023-04-05T10:22:19;2.47;;;1.67;;
18532;SDS011;9396;51.510;11.934;2023-04-05T10:24:50;4.63;;;1.50;;
18532;SDS011;9396;51.510;11.934;2023-04-05T10:27:20;2.83;;;1.60;;
18532;SDS011;9396;51.510;11.934;2023-04-05T10:29:55;2.70;;;1.63;;
18532;SDS011;9396;51.510;11.934;2023-04-05T10:32:40;3.50;;;1.60;;
18532;SDS011;9396;51.510;11.934;2023-04-05T10:35:20;5.43;;;1.90;;
18532;SDS011;9396;51.510;11.934;2023-04-05T10:37:58;7.17;;;1.53;;
18532;SDS011;9396;51.510;11.934;2023-04-05T10:40:37;6.30;;;1.90;;
18532;SDS011;9396;51.510;11.934;2023-04-05T10:43:06;3.73;;;1.80;;
18532;SDS011;9396;51.510;11.934;2023-04-05T10:45:40;3.10;;;1.80;;
18532;SDS011;9396;51.510;11.934;2023-04-05T10:48:10;3.10;;;1.60;;
18532;SDS011;9396;51.510;11.934;2023-04-05T10:50:46;3.37;;;1.83;;
18532;SDS011;9396;51.510;11.934;2023-04-05T10:53:14;2.97;;;1.87;;
18532;SDS011;9396;51.510;11.934;2023-04-05T10:55:42;3.33;;;1.53;;
18532;SDS011;9396;51.510;11.934;2023-04-05T10:58:10;5.20;;;2.10;;
18532;SDS011;9396;51.510;11.934;2023-04-05T11:00:38;3.37;;;2.00;;
18532;SDS011;9396;51.510;11.934;2023-04-05T11:03:05;8.60;;;2.03;;
18532;SDS011;9396;51.510;11.934;2023-04-05T11:05:32;3.20;;;1.70;;
18532;SDS011;9396;51.510;11.934;2023-04-05T11:08:05;2.20;;;1.50;;
18532;SDS011;9396;51.510;11.934;2023-04-05T11:10:42;2.87;;;1.90;;
18532;SDS011;9396;51.510;11.934;2023-04-05T11:13:17;2.27;;;1.50;;
18532;SDS011;9396;51.510;11.934;2023-04-05T11:15:44;4.20;;;1.60;;
18532;SDS011;9396;51.510;11.934;2023-04-05T11:18:11;2.93;;;1.73;;
18532;SDS011;9396;51.510;11.934;2023-04-05T11:20:46;2.10;;;1.47;;
18532;SDS011;9396;51.510;11.934;2023-04-05T11:23:16;3.80;;;1.80;;
18532;SDS011;9396;51.510;11.934;2023-04-05T11:25:46;3.30;;;1.80;;
18532;SDS011;9396;51.510;11.934;2023-04-05T11:28:27;4.73;;;2.07;;
18532;SDS011;9396;51.510;11.934;2023-04-05T11:30:56;3.77;;;1.70;;
18532;SDS011;9396;51.510;11.934;2023-04-05T11:33:36;2.17;;;1.60;;
18532;SDS011;9396;51.510;11.934;2023-04-05T11:36:04;3.97;;;1.73;;
18532;SDS011;9396;51.510;11.934;2023-04-05T11:38:31;2.47;;;1.87;;
18532;SDS011;9396;51.510;11.934;2023-04-05T11:41:12;3.17;;;1.70;;
18532;SDS011;9396;51.510;11.934;2023-04-05T11:43:41;2.60;;;1.80;;
18532;SDS011;9396;51.510;11.934;2023-04-05T11:46:08;3.73;;;1.97;;
18532;SDS011;9396;51.510;11.934;2023-04-05T11:48:35;2.40;;;1.67;;
18532;SDS011;9396;51.510;11.934;2023-04-05T11:51:04;1.97;;;1.47;;
18532;SDS011;9396;51.510;11.934;2023-04-05T11:53:33;3.27;;;1.57;;
18532;SDS011;9396;51.510;11.934;2023-04-05T11:56:05;2.40;;;1.80;;
18532;SDS011;9396;51.510;11.934;2023-04-05T11:58:34;6.57;;;2.00;;
18532;SDS011;9396;51.510;11.934;2023-04-05T12:01:02;4.33;;;1.63;;
18532;SDS011;9396;51.510;11.934;2023-04-05T12:03:31;5.10;;;1.97;;
18532;SDS011;9396;51.510;11.934;2023-04-05T12:05:58;5.80;;;1.87;;
18532;SDS011;9396;51.510;11.934;2023-04-05T12:08:36;2.10;;;1.53;;
18532;SDS011;9396;51.510;11.934;2023-04-05T12:11:06;5.03;;;1.50;;
18532;SDS011;9396;51.510;11.934;2023-04-05T12:13:35;2.87;;;1.63;;
18532;SDS011;9396;51.510;11.934;2023-04-05T12:16:02;4.03;;;2.17;;
18532;SDS011;9396;51.510;11.934;2023-04-05T12:18:30;3.30;;;1.60;;
18532;SDS011;9396;51.510;11.934;2023-04-05T12:20:58;3.27;;;2.00;;
18532;SDS011;9396;51.510;11.934;2023-04-05T12:23:25;5.70;;;1.80;;
18532;SDS011;9396;51.510;11.934;2023-04-05T12:25:53;4.50;;;1.50;;
18532;SDS011;9396;51.510;11.934;2023-04-05T12:28:21;4.43;;;1.70;;
18532;SDS011;9396;51.510;11.934;2023-04-05T12:30:49;3.60;;;1.80;;
18532;SDS011;9396;51.510;11.934;2023-04-05T12:33:24;4.27;;;1.90;;
18532;SDS011;9396;51.510;11.934;2023-04-05T12:35:52;2.90;;;1.83;;
18532;SDS011;9396;51.510;11.934;2023-04-05T12:38:18;2.53;;;1.80;;
18532;SDS011;9396;51.510;11.934;2023-04-05T12:40:45;3.20;;;1.90;;
18532;SDS011;9396;51.510;11.934;2023-04-05T12:43:12;5.70;;;2.07;;
18532;SDS011;9396;51.510;11.934;2023-04-05T12:45:43;3.03;;;2.00;;
18532;SDS011;9396;51.510;11.934;2023-04-05T12:48:12;5.03;;;1.90;;
18532;SDS011;9396;51.510;11.934;2023-04-05T12:50:43;4.93;;;2.03;;
18532;SDS011;9396;51.510;11.934;2023-04-05T12:53:14;2.20;;;1.60;;
18532;SDS011;9396;51.510;11.934;2023-04-05T12:55:47;10.70;;;1.73;;
18532;SDS011;9396;51.510;11.934;2023-04-05T12:58:15;4.37;;;1.93;;
18532;SDS011;9396;51.510;11.934;2023-04-05T13:00:42;3.90;;;1.87;;
18532;SDS011;9396;51.510;11.934;2023-04-05T13:03:15;4.00;;;1.67;;
18532;SDS011;9396;51.510;11.934;2023-04-05T13:05:44;2.27;;;1.50;;
18532;SDS011;9396;51.510;11.934;2023-04-05T13:08:11;3.00;;;2.10;;
18532;SDS011;9396;51.510;11.934;2023-04-05T13:10:37;3.03;;;1.90;;
18532;SDS011;9396;51.510;11.934;2023-04-05T13:13:04;2.27;;;1.73;;
18532;SDS011;9396;51.510;11.934;2023-04-05T13:15:31;3.30;;;1.73;;
18532;SDS011;9396;51.510;11.934;2023-04-05T13:17:57;3.07;;;1.70;;
18532;SDS011;9396;51.510;11.934;2023-04-05T13:20:25;2.70;;;1.90;;
18532;SDS011;9396;51.510;11.934;2023-04-05T13:22:52;3.00;;;1.40;;
18532;SDS011;9396;51.510;11.934;2023-04-05T13:25:19;4.33;;;2.30;;
18532;SDS011;9396;51.510;11.934;2023-04-05T13:27:45;4.77;;;2.10;;
18532;SDS011;9396;51.510;11.934;2023-04-05T13:30:12;4.93;;;2.07;;
18532;SDS011;9396;51.510;11.934;2023-04-05T13:32:39;3.00;;;1.70;;
18532;SDS011;9396;51.510;11.934;2023-04-05T13:35:06;7.93;;;2.10;;
18532;SDS011;9396;51.510;11.934;2023-04-05T13:37:35;2.93;;;1.97;;
18532;SDS011;9396;51.510;11.934;2023-04-05T13:40:01;3.67;;;1.90;;
18532;SDS011;9396;51.510;11.934;2023-04-05T13:42:28;7.03;;;1.97;;
18532;SDS011;9396;51.510;11.934;2023-04-05T13:44:55;2.17;;;1.70;;
18532;SDS011;9396;51.510;11.934;2023-04-05T13:47:22;5.67;;;1.97;;
18532;SDS011;9396;51.510;11.934;2023-04-05T13:49:48;2.53;;;1.50;;
18532;SDS011;9396;51.510;11.934;2023-04-05T13:52:15;3.70;;;2.07;;
18532;SDS011;9396;51.510;11.934;2023-04-05T13:54:43;5.50;;;1.60;;
18532;SDS011;9396;51.510;11.934;2023-04-05T13:57:10;3.43;;;1.97;;
18532;SDS011;9396;51.510;11.934;2023-04-05T13:59:38;3.80;;;1.70;;
18532;SDS011;9396;51.510;11.934;2023-04-05T14:02:04;5.27;;;2.00;;
18532;SDS011;9396;51.510;11.934;2023-04-05T14:04:31;3.53;;;2.10;;
18532;SDS011;9396;51.510;11.934;2023-04-05T14:06:58;4.83;;;2.10;;
18532;SDS011;9396;51.510;11.934;2023-04-05T14:09:24;2.63;;;2.07;;
18532;SDS011;9396;51.510;11.934;2023-04-05T14:11:52;3.97;;;2.20;;
18532;SDS011;9396;51.510;11.934;2023-04-05T14:14:21;3.63;;;2.03;;
18532;SDS011;9396;51.510;11.934;2023-04-05T14:16:48;4.60;;;2.17;;
18532;SDS011;9396;51.510;11.934;2023-04-05T14:19:15;3.27;;;1.73;;
18532;SDS011;9396;51.510;11.934;2023-04-05T14:21:43;2.73;;;2.10;;
18532;SDS011;9396;51.510;11.934;2023-04-05T14:24:10;2.90;;;1.83;;
18532;SDS011;9396;51.510;11.934;2023-04-05T14:26:37;3.37;;;1.73;;
18532;SDS011;9396;51.510;11.934;2023-04-05T14:29:05;3.90;;;2.20;;
18532;SDS011;9396;51.510;11.934;2023-04-05T14:31:32;3.43;;;2.27;;
18532;SDS011;9396;51.510;11.934;2023-04-05T14:33:59;2.73;;;1.80;;
18532;SDS011;9396;51.510;11.934;2023-04-05T14:36:26;2.37;;;2.00;;
18532;SDS011;9396;51.510;11.934;2023-04-05T14:38:52;2.70;;;1.90;;
18532;SDS011;9396;51.510;11.934;2023-04-05T14:41:19;3.87;;;2.10;;
18532;SDS011;9396;51.510;11.934;2023-04-05T14:43:46;4.37;;;1.90;;
18532;SDS011;9396;51.510;11.934;2023-04-05T14:46:14;4.80;;;2.20;;
18532;SDS011;9396;51.510;11.934;2023-04-05T14:48:41;4.50;;;2.37;;
18532;SDS011;9396;51.510;11.934;2023-04-05T14:51:08;3.80;;;2.10;;
18532;SDS011;9396;51.510;11.934;2023-04-05T14:53:35;3.23;;;2.30;;
18532;SDS011;9396;51.510;11.934;2023-04-05T14:56:02;3.10;;;2.20;;